Flight Track Log - Related Links

Times and Time Zones

All times are in EST time to prevent confusion due to time zone crossing. See the FSR411 flight status page for this flight to view local times or setup timezone preferences in your user account.

Time Position Orientation Groundspeed Altitude Reporting Facility
EST Latitude Longitude Course Direction KTS km/h feet Rate Location/Type
Tue 13h06:48 40.0208 -88.3594 222° Southwest 228 422 4.200  Level Kansas City Center
Tue 13h07:52 39.9714 -88.4203 223° Southwest 243 451 7.600 3.408 Climbing Kansas City Center
Tue 13h08:53 39.9261 -88.4878 229° Southwest 244 452 11.300 3.774 Climbing Kansas City Center
Tue 13h09:56 39.8628 -88.5767 227° Southwest 262 486 15.400 3.677 Climbing Kansas City Center
Tue 13h10:57 39.7967 -88.6678 227° Southwest 328 607 18.900 3.504 Climbing Kansas City Center
Tue 13h12:00 39.5103 -88.9995 222° Southwest  Level Estimated
Tue 13h12:01 39.7292 -88.7628 227° Southwest 350 649 22.700  Level Kansas City Center
Tue 13h13:01 39.6614 -88.8572 227° Southwest 355 658 26.000 2.710 Climbing Kansas City Center
Tue 13h14:05 39.5939 -88.9508 227° Southwest 356 660 28.300 1.584 Climbing Kansas City Center
Tue 13h15:06 39.5189 -89.0553 227° Southwest 382 708 29.300 1.180 Climbing Kansas City Center
Tue 13h16:07 39.4381 -89.1647 226° Southwest 410 760 30.700 1.403 Climbing Kansas City Center
Tue 13h17:10 39.3539 -89.2814 227° Southwest 424 785 32.200 1.728 Climbing Kansas City Center
Tue 13h18:12 39.2553 -89.4156 227° Southwest 428 793 34.300 1.872 Climbing Kansas City Center
Tue 13h19:15 39.1767 -89.5214 226° Southwest 417 772 36.100 1.548 Climbing Kansas City Center
Tue 13h20:16 39.1006 -89.6247 227° Southwest 402 745 37.500 1.306 Climbing Kansas City Center
Tue 13h21:19 39.0239 -89.7286 226° Southwest 400 740 38.800 1.016 Climbing Kansas City Center
Tue 13h22:20 38.9486 -89.8303 226° Southwest 394 729 39.600 581 Climbing Kansas City Center
Tue 13h23:23 38.8706 -89.9331 226° Southwest 399 739 40.000 194 Climbing Kansas City Center
Tue 13h24:24 38.7778 -90.0586 227° Southwest 410 760 40.000  Level Kansas City Center
Tue 13h25:26 38.6942 -90.1667 225° Southwest 420 777 40.000  Level Kansas City Center
Tue 13h26:27 38.6089 -90.2772 225° Southwest 430 797 40.000  Level Kansas City Center
Tue 13h27:31 38.5269 -90.3889 227° Southwest 428 793 40.000  Level Kansas City Center
Tue 13h29:05 38.3953 -90.5597 226° Southwest 423 784 40.000  Level Memphis Center
Tue 13h30:07 38.3164 -90.6650 226° Southwest 414 766 40.000  Level Memphis Center
Tue 13h31:08 38.2369 -90.7664 225° Southwest 406 752 40.000  Level Memphis Center
Tue 13h31:38 38.1992 -90.8139 225° Southwest 402 745 40.000  Level Kansas City Center
Tue 13h32:42 38.1222 -90.9153 226° Southwest 399 739 40.000  Level Kansas City Center
Tue 13h33:42 38.0258 -91.0394 225° Southwest 409 758 40.000  Level Kansas City Center
Tue 13h34:46 37.9469 -91.1403 225° Southwest 418 774 40.000  Level Kansas City Center
Tue 13h35:47 37.8628 -91.2494 226° Southwest 426 789 40.000  Level Kansas City Center
Tue 13h36:47 37.7772 -91.3583 225° Southwest 431 798 40.000  Level Kansas City Center
Tue 13h37:51 37.6731 -91.4933 226° Southwest 439 813 40.000  Level Kansas City Center
Tue 13h38:51 37.5833 -91.6050 225° Southwest 445 824 40.000  Level Kansas City Center
Tue 13h39:55 37.4967 -91.7169 226° Southwest 445 824 40.000  Level Kansas City Center
Tue 13h40:58 37.4083 -91.8278 225° Southwest 444 822 40.000 339 Level Kansas City Center
Tue 13h41:59 37.3194 -91.9406 225° Southwest 446 826 40.700 836 Climbing Kansas City Center
Tue 13h43:00 37.2322 -92.0508 225° Southwest 443 821 41.700 960 Climbing Kansas City Center
Tue 13h44:04 37.1472 -92.1572 225° Southwest 433 801 42.700 629 Climbing Kansas City Center
Tue 13h45:04 37.0661 -92.2600 225° Southwest 419 776 43.000 145 Climbing Kansas City Center
Tue 13h46:08 36.9858 -92.3569 224° Southwest 406 752 43.000  Level Kansas City Center
Tue 13h47:08 36.8908 -92.4744 225° Southwest 399 739 43.000  Level Kansas City Center
Tue 13h48:12 36.8119 -92.5728 225° Southwest 398 737 43.000  Level Kansas City Center
Tue 13h49:13 36.7328 -92.6703 225° Southwest 397 735 43.000  Level Kansas City Center
Tue 13h50:14 36.6519 -92.7675 224° Southwest 399 739 43.000  Level Kansas City Center
Tue 13h50:47 36.6033 -92.8239 223° Southwest 400 740 43.000  Level Memphis Center
Tue 13h51:49 36.5231 -92.9236 225° Southwest 402 745 43.000  Level Memphis Center
Tue 13h52:51 36.4425 -93.0194 224° Southwest 404 748 43.000  Level Memphis Center
Tue 13h53:23 36.4111 -93.0550 222° Southwest 404 748 43.000  Level Kansas City Center
Tue 13h53:53 36.3603 -93.1178 225° Southwest 409 758 43.000  Level Memphis Center
Tue 13h54:55 36.2794 -93.2164 225° Southwest 411 761 43.000  Level Memphis Center
Tue 13h55:57 36.1811 -93.3342 224° Southwest 412 763 43.000  Level Memphis Center
Tue 13h56:59 36.0989 -93.4325 224° Southwest 412 763 43.000  Level Memphis Center
Tue 13h58:01 36.0150 -93.5328 224° Southwest 417 772 43.000  Level Memphis Center
Tue 13h59:03 35.9303 -93.6333 224° Southwest 423 784 43.000  Level Memphis Center
Tue 14h00:07 35.8278 -93.7550 224° Southwest 426 789 43.000  Level Memphis Center
Tue 14h01:09 35.7422 -93.8569 224° Southwest 430 797 43.000  Level Memphis Center
Tue 14h02:11 35.6556 -93.9589 224° Southwest 432 800 43.000  Level Memphis Center
Tue 14h03:13 35.5667 -94.0622 223° Southwest 437 810 43.000  Level Memphis Center
Tue 14h04:15 35.4797 -94.1639 224° Southwest 435 806 43.000  Level Memphis Center
Tue 14h05:17 35.3931 -94.2650 224° Southwest 433 801 43.000  Level Memphis Center
Tue 14h06:19 35.2844 -94.3842 222° Southwest 437 810 43.000  Level Memphis Center
Tue 14h07:21 35.1931 -94.4831 221° Southwest 438 811 43.000  Level Memphis Center
Tue 14h08:18 35.1075 -94.5889 225° Southwest 438 811 43.000  Level Fort Worth Center
Tue 14h09:21 35.0250 -94.6919 226° Southwest 429 795 43.000  Level Fort Worth Center
Tue 14h10:23 34.9419 -94.7956 226° Southwest 427 790 43.000  Level Fort Worth Center
Tue 14h11:25 34.8581 -94.8992 225° Southwest 426 789 43.000 -532 Level Fort Worth Center
Tue 14h12:27 34.7742 -95.0019 225° Southwest 427 790 41.900 -1.403 Descending Fort Worth Center
Tue 14h13:29 34.6914 -95.1050 226° Southwest 427 790 40.100 -2.032 Descending Fort Worth Center
Tue 14h14:31 34.5958 -95.2219 225° Southwest 411 761 37.700 -2.032 Descending Fort Worth Center
Tue 14h15:33 34.5214 -95.3125 225° Southwest 421 779 35.900 -1.935 Descending Fort Worth Center
Tue 14h16:35 34.4292 -95.4247 225° Southwest 463 858 33.700 -2.468 Descending Fort Worth Center
Tue 14h17:37 34.3186 -95.5586 225° Southwest 468 867 30.800 -2.565 Descending Fort Worth Center
Tue 14h18:39 34.2269 -95.6686 225° Southwest 464 859 28.400 -2.323 Descending Fort Worth Center
Tue 14h19:41 34.1358 -95.7789 225° Southwest 464 859 26.000 -2.208 Descending Fort Worth Center
Tue 14h20:44 34.0489 -95.8825 225° Southwest 463 858 23.800 -2.448 Descending Fort Worth Center
Tue 14h21:46 33.9422 -96.0100 225° Southwest 453 838 20.900 -2.516 Descending Fort Worth Center
Tue 14h22:48 33.8606 -96.1100 225° Southwest 423 784 18.600 -2.032 Descending Fort Worth Center
Tue 14h23:50 33.7831 -96.2011 224° Southwest 385 713 16.700 -1.887 Descending Fort Worth Center
Tue 14h24:52 33.7042 -96.2964 225° Southwest 373 690 14.700 -1.790 Descending Fort Worth Center
Tue 14h25:54 33.6333 -96.3789 224° Southwest 358 663 13.000 -1.548 Descending Fort Worth Center
Tue 14h26:56 33.5603 -96.4661 225° Southwest 347 642 11.500 -968 Descending Fort Worth Center
Tue 14h27:58 33.4972 -96.5406 225° Southwest 320 592 11.000 -242 Descending Fort Worth Center
Tue 14h29:00 33.4344 -96.6139 224° Southwest 296 549 11.000 -194 Level Fort Worth Center
Tue 14h30:02 33.3756 -96.6783 222° Southwest 290 538 10.600 -816 Descending Fort Worth Center
Tue 14h31:05 33.3644 -96.7772 262° West 278 515 9.300 -1.248 Descending Fort Worth Center
Tue 14h32:07 33.3536 -96.8714 262° West 284 526 8.000 -1.500 Descending Fort Worth Center
Tue 14h33:09 33.3439 -96.9731 263° West 286 529 6.200 -1.742 Descending Fort Worth Center
Tue 14h34:11 33.3372 -97.0642 265° West 278 515 4.400 -1.525 Descending Fort Worth Center
Tue 14h35:07 33.3333 -97.1500 267° West 249 462 3.200 -724 Descending Dallas / Fort Worth TRACON
Tue 14h36:07 33.3000 -97.2000 231° Southwest 221 409 3.000 -100 Descending Dallas / Fort Worth TRACON
Tue 14h37:07 33.2500 -97.2333 209° Southwest 234 433 3.000  Level Dallas / Fort Worth TRACON
Tue 14h38:12 33.1667 -97.2500 190° South 244 452 3.000  Level Dallas / Fort Worth TRACON
Tue 14h39:07 33.1167 -97.2500 180° South 244 452 3.000  Level Dallas / Fort Worth TRACON
Tue 14h40:12 33.0333 -97.2500 180° South 241 446 3.000  Level Dallas / Fort Worth TRACON
Tue 14h41:12 32.9667 -97.2167 157° South 241 446 3.000  Level Dallas / Fort Worth TRACON
Tue 14h42:12 32.9167 -97.2000 164° South 237 439 3.000 -350 Level Dallas / Fort Worth TRACON
Tue 14h43:12 32.8500 -97.1667 157° South 226 418 2.300 -500 Descending Dallas / Fort Worth TRACON
Tue 14h44:12 32.8000 -97.1500 164° South 174 322 2.000 -209 Descending Dallas / Fort Worth TRACON
Tue 14h45:07 32.7667 -97.1333 157° South 151 280 1.900 -313 Descending Dallas / Fort Worth TRACON
Tue 14h46:07 32.7167 -97.1167 164° South 151 280 1.400 -450 Descending Dallas / Fort Worth TRACON
Tue 14h47:07 32.6833 -97.1000 157° South 134 248 1.000 -400 Descending Dallas / Fort Worth TRACON

Login

Don't have an account? Register now (free) for customized features, flight alerts, and more!